createdAt,value
2023-05-18T00:03:48.858Z,99894.38
2023-05-18T00:08:51.649Z,99862.19
2023-05-18T00:13:54.116Z,99824.44
2023-05-18T00:18:57.062Z,99855.97
2023-05-18T00:23:59.498Z,99836.66
2023-05-18T00:29:02.029Z,99890.75
2023-05-18T00:34:08.179Z,99862.78
2023-05-18T00:39:10.971Z,99798.47
2023-05-18T00:44:13.370Z,99918.28
2023-05-18T00:49:16.226Z,99916.88
2023-05-18T00:54:19.791Z,99923.69
2023-05-18T00:59:22.528Z,99934.03
2023-05-18T01:04:26.318Z,99913.31
2023-05-18T01:09:28.736Z,99940.13
2023-05-18T01:14:38.608Z,99919.44
2023-05-18T01:19:52.681Z,99931.91
2023-05-18T01:25:00.291Z,99936.16
2023-05-18T01:30:03.694Z,99928.66
2023-05-18T01:35:06.950Z,99923.34
2023-05-18T01:40:09.913Z,99925.94
2023-05-18T01:45:21.028Z,99916.22
2023-05-18T01:50:38.243Z,99930.13
2023-05-18T01:55:42.070Z,99861.50
2023-05-18T02:00:46.564Z,99862.31
2023-05-18T02:05:48.907Z,99843.63
2023-05-18T02:10:51.894Z,99934.03
2023-05-18T02:15:56.577Z,99971.41
2023-05-18T02:21:00.368Z,99934.50
2023-05-18T02:26:03.108Z,99902.19
2023-05-18T02:31:09.882Z,99880.66
2023-05-18T02:36:14.038Z,99886.19
2023-05-18T02:41:16.354Z,99950.06
2023-05-18T02:46:18.699Z,99859.00
2023-05-18T02:51:22.330Z,99908.28
2023-05-18T02:56:25.200Z,99931.56
2023-05-18T03:01:28.005Z,99895.75
2023-05-18T03:06:30.830Z,100004.94
2023-05-18T03:11:33.208Z,99937.56
2023-05-18T03:16:35.622Z,99897.91
2023-05-18T03:21:38.074Z,99963.97
2023-05-18T03:26:42.291Z,99980.75
2023-05-18T03:31:44.815Z,100027.75
2023-05-18T03:36:47.824Z,100028.09
2023-05-18T03:41:50.156Z,99989.78
2023-05-18T03:46:52.526Z,100001.09
2023-05-18T03:51:54.936Z,99944.13
2023-05-18T03:56:57.281Z,99982.94
2023-05-18T04:02:00.638Z,99970.50
2023-05-18T04:07:06.480Z,99967.69
2023-05-18T04:12:09.205Z,100050.53
2023-05-18T04:17:11.602Z,100000.28
2023-05-18T04:22:14.017Z,99961.38
2023-05-18T04:27:16.439Z,100033.75
2023-05-18T04:32:19.294Z,100044.13
2023-05-18T04:37:21.618Z,100024.97
2023-05-18T04:42:23.848Z,100077.34
2023-05-18T04:47:26.163Z,100051.56
2023-05-18T04:52:31.221Z,100056.75
2023-05-18T04:57:33.571Z,100064.53
2023-05-18T05:02:36.149Z,100067.69
2023-05-18T05:07:38.665Z,100074.97
2023-05-18T05:12:42.166Z,100089.78
2023-05-18T05:17:44.506Z,100076.75
2023-05-18T05:22:46.939Z,100077.50
2023-05-18T05:27:49.275Z,100085.38
2023-05-18T05:32:52.214Z,100102.84
2023-05-18T05:37:54.540Z,100111.19
2023-05-18T05:42:56.857Z,100108.34
2023-05-18T05:47:59.274Z,100036.31
2023-05-18T05:53:02.023Z,100077.69
2023-05-18T05:58:05.921Z,100012.06
2023-05-18T06:03:08.764Z,100103.16
2023-05-18T06:08:11.111Z,100077.31
2023-05-18T06:13:13.427Z,100102.97
2023-05-18T06:18:15.837Z,100074.09
2023-05-18T06:23:23.069Z,100119.56
2023-05-18T06:28:25.430Z,100106.19
2023-05-18T06:33:28.957Z,100054.66
2023-05-18T06:38:31.874Z,100074.56
2023-05-18T06:43:34.218Z,100102.69
2023-05-18T06:48:37.682Z,100116.84
2023-05-18T06:53:39.981Z,100096.75
2023-05-18T06:58:43.168Z,100109.41
2023-05-18T07:03:45.708Z,100108.75
2023-05-18T07:08:49.188Z,100097.19
2023-05-18T07:13:51.804Z,100119.78
2023-05-18T07:18:54.095Z,100107.91
2023-05-18T07:23:56.403Z,100111.03
2023-05-18T07:28:58.871Z,100124.44
2023-05-18T07:34:01.372Z,100127.81
2023-05-18T07:39:04.007Z,100107.22
2023-05-18T07:44:06.283Z,100134.88
2023-05-18T07:49:08.568Z,100117.38
2023-05-18T07:54:10.894Z,100136.44
2023-05-18T07:59:13.466Z,100122.00
2023-05-18T08:04:16.202Z,100129.44
2023-05-18T08:09:18.567Z,100106.00
2023-05-18T08:14:21.213Z,100135.88
2023-05-18T08:19:23.593Z,100123.91
2023-05-18T08:24:26.078Z,100112.50
2023-05-18T08:29:28.492Z,100069.66
2023-05-18T08:34:30.936Z,100100.25
2023-05-18T08:39:33.398Z,100129.50
2023-05-18T08:45:13.440Z,100117.47
2023-05-18T08:50:18.340Z,100137.06
2023-05-18T08:55:21.390Z,100107.06
2023-05-18T09:00:27.256Z,100118.25
2023-05-18T09:05:30.241Z,100121.69
2023-05-18T09:10:34.165Z,100114.50
2023-05-18T09:15:36.443Z,100148.94
2023-05-18T09:20:39.222Z,100112.66
2023-05-18T09:25:46.429Z,100119.59
2023-05-18T09:30:48.655Z,100126.31
2023-05-18T09:35:52.718Z,100140.06
2023-05-18T09:40:54.979Z,100128.56
2023-05-18T09:45:57.562Z,100108.78
2023-05-18T09:51:00.340Z,100128.72
2023-05-18T09:56:07.119Z,100127.06
2023-05-18T10:01:09.432Z,100103.59
2023-05-18T10:06:17.782Z,100116.03
2023-05-18T10:11:20.892Z,100127.06
2023-05-18T10:16:25.973Z,100116.38
2023-05-18T10:21:31.564Z,100121.03
2023-05-18T10:26:39.242Z,100111.72
2023-05-18T10:31:43.247Z,100085.28
2023-05-18T10:36:45.656Z,100058.72
2023-05-18T10:41:49.726Z,100071.50
2023-05-18T10:46:52.644Z,100113.25
2023-05-18T10:51:55.599Z,100090.41
2023-05-18T10:56:58.165Z,100073.31
2023-05-18T11:02:02.596Z,100040.66
2023-05-18T11:07:05.621Z,100116.81
2023-05-18T11:12:14.590Z,100104.47
2023-05-18T11:17:23.317Z,100101.94
2023-05-18T11:22:58.802Z,100056.91
2023-05-18T11:28:05.085Z,100105.09
2023-05-18T11:33:15.268Z,100079.88
2023-05-18T11:38:17.880Z,100088.66
2023-05-18T11:43:24.590Z,100101.91
2023-05-18T11:48:32.564Z,100088.66
2023-05-18T11:53:35.551Z,100090.03
2023-05-18T11:58:39.106Z,100036.69
2023-05-18T12:03:41.567Z,100037.06
2023-05-18T12:08:46.447Z,100082.09
2023-05-18T12:13:52.384Z,100091.66
2023-05-18T12:18:54.874Z,100026.38
2023-05-18T12:24:01.047Z,100089.75
2023-05-18T12:29:03.590Z,100065.22
2023-05-18T12:34:06.891Z,100075.69
2023-05-18T12:39:09.367Z,100011.13
2023-05-18T12:44:11.687Z,100016.78
2023-05-18T12:49:14.044Z,100076.41
2023-05-18T12:54:16.583Z,100085.81
2023-05-18T12:59:22.188Z,100082.31
2023-05-18T13:04:24.639Z,100072.84
2023-05-18T13:09:26.841Z,100074.84
2023-05-18T13:14:31.288Z,100089.72
2023-05-18T13:19:36.437Z,100094.00
2023-05-18T13:24:39.525Z,100096.69
2023-05-18T13:29:42.333Z,100106.44
2023-05-18T13:34:44.552Z,100077.41
2023-05-18T13:39:46.687Z,100103.94
2023-05-18T13:44:48.960Z,100086.13
2023-05-18T13:49:51.169Z,100083.97
2023-05-18T13:54:53.416Z,100099.69
2023-05-18T13:59:55.593Z,100090.25
2023-05-18T14:04:58.905Z,100079.47
2023-05-18T14:10:01.095Z,100113.69
2023-05-18T14:15:04.278Z,100103.81
2023-05-18T14:20:07.304Z,100094.50
2023-05-18T14:25:09.739Z,100103.00
2023-05-18T14:30:12.443Z,100110.00
2023-05-18T14:35:14.675Z,100112.19
2023-05-18T14:40:16.965Z,100114.09
2023-05-18T14:45:19.250Z,100137.63
2023-05-18T14:50:21.512Z,100153.66
2023-05-18T14:55:23.684Z,100146.22
2023-05-18T15:00:25.966Z,100130.50
2023-05-18T15:05:28.254Z,100139.44
2023-05-18T15:10:30.653Z,100157.28
2023-05-18T15:15:33.598Z,100181.59
2023-05-18T15:20:37.113Z,100188.06
2023-05-18T15:25:41.681Z,100183.84
2023-05-18T15:30:43.879Z,100179.25
2023-05-18T15:35:46.924Z,100172.66
2023-05-18T15:40:50.759Z,100190.00
2023-05-18T15:45:53.909Z,100198.25
2023-05-18T15:50:56.078Z,100182.09
2023-05-18T15:55:59.589Z,100228.31
2023-05-18T16:01:02.063Z,100218.16
2023-05-18T16:06:04.446Z,100249.94
2023-05-18T16:11:07.453Z,100260.13
2023-05-18T16:16:10.825Z,100266.97
2023-05-18T16:21:13.688Z,100263.41
2023-05-18T16:26:16.099Z,100267.25
2023-05-18T16:31:18.283Z,100282.53
2023-05-18T16:36:21.328Z,100298.66
2023-05-18T16:41:23.678Z,100307.69
2023-05-18T16:46:26.145Z,100310.13
2023-05-18T16:51:28.358Z,100299.75
2023-05-18T16:56:30.592Z,100318.56
2023-05-18T17:01:33.647Z,100303.22
2023-05-18T17:06:36.494Z,100301.94
2023-05-18T17:11:38.695Z,100329.00
2023-05-18T17:16:41.456Z,100335.47
2023-05-18T17:21:43.792Z,100342.09
2023-05-18T17:26:46.024Z,100337.72
2023-05-18T17:31:48.302Z,100338.22
2023-05-18T17:36:50.590Z,100361.19
2023-05-18T17:41:54.538Z,100347.75
2023-05-18T17:46:57.482Z,100364.97
2023-05-18T17:51:59.843Z,100365.53
2023-05-18T17:57:02.228Z,100376.50
2023-05-18T18:02:04.645Z,100384.56
2023-05-18T18:07:07.372Z,100397.94
2023-05-18T18:12:09.741Z,100381.94
2023-05-18T18:17:11.984Z,100413.97
2023-05-18T18:22:14.277Z,100392.09
2023-05-18T18:27:19.818Z,100401.66
2023-05-18T18:32:22.181Z,100402.47
2023-05-18T18:37:24.348Z,100411.56
2023-05-18T18:42:26.529Z,100416.56
2023-05-18T18:47:28.896Z,100410.69
2023-05-18T18:52:31.235Z,100441.84
2023-05-18T18:57:34.193Z,100429.38
2023-05-18T19:02:36.622Z,100445.81
2023-05-18T19:07:38.903Z,100400.66
2023-05-18T19:12:44.144Z,100449.19
2023-05-18T19:17:46.746Z,100480.78
2023-05-18T19:22:49.036Z,100462.59
2023-05-18T19:27:54.927Z,100457.41
2023-05-18T19:32:57.384Z,100483.88
2023-05-18T19:38:00.858Z,100459.06
2023-05-18T19:43:03.290Z,100512.00
2023-05-18T19:48:06.011Z,100458.09
2023-05-18T19:53:08.306Z,100467.69
2023-05-18T19:58:10.722Z,100495.72
2023-05-18T20:03:14.866Z,100546.13
2023-05-18T20:08:17.188Z,100526.31
2023-05-18T20:13:19.664Z,100510.13
2023-05-18T20:18:22.261Z,100519.63
2023-05-18T20:23:24.983Z,100531.25
2023-05-18T20:28:28.204Z,100546.66
2023-05-18T20:33:30.614Z,100547.66
2023-05-18T20:38:32.990Z,100564.91
2023-05-18T20:43:37.995Z,100532.06
2023-05-18T20:48:40.632Z,100587.28
2023-05-18T20:53:44.252Z,100603.63
2023-05-18T20:58:49.016Z,100596.03
2023-05-18T21:03:51.376Z,100613.94
2023-05-18T21:08:53.749Z,100599.81
2023-05-18T21:13:56.048Z,100549.00
2023-05-18T21:18:58.383Z,100624.03
2023-05-18T21:24:01.669Z,100620.25
2023-05-18T21:29:03.909Z,100600.88
2023-05-18T21:34:11.662Z,100605.72
2023-05-18T21:39:14.169Z,100616.69
2023-05-18T21:44:17.406Z,100615.88
2023-05-18T21:49:19.644Z,100622.41
2023-05-18T21:54:22.011Z,100637.44
2023-05-18T21:59:24.365Z,100593.47
2023-05-18T22:04:27.206Z,100624.41
2023-05-18T22:09:29.970Z,100647.47
2023-05-18T22:14:33.262Z,100664.44
2023-05-18T22:19:35.649Z,100652.59
2023-05-18T22:24:37.862Z,100633.13
2023-05-18T22:29:40.129Z,100632.75
2023-05-18T22:34:42.361Z,100663.34
2023-05-18T22:39:44.862Z,100625.13
2023-05-18T22:44:47.187Z,100651.28
2023-05-18T22:49:50.064Z,100641.00
2023-05-18T22:54:52.554Z,100642.47
2023-05-18T22:59:54.917Z,100633.81
2023-05-18T23:04:57.752Z,100632.28
2023-05-18T23:09:59.978Z,100651.88
2023-05-18T23:15:03.031Z,100624.97
2023-05-18T23:20:08.742Z,100666.06
2023-05-18T23:25:11.502Z,100675.53
2023-05-18T23:30:13.972Z,100633.81
2023-05-18T23:35:16.921Z,100663.28
2023-05-18T23:40:19.889Z,100653.47
2023-05-18T23:45:22.478Z,100648.97
2023-05-18T23:50:25.036Z,100638.00
2023-05-18T23:55:28.361Z,100646.13
